createdAt,value
2019-02-16T00:02:17.865Z,9.37
2019-02-16T00:04:46.281Z,9.80
2019-02-16T00:07:14.670Z,9.63
2019-02-16T00:09:43.083Z,9.47
2019-02-16T00:12:11.500Z,9.30
2019-02-16T00:14:39.890Z,10.43
2019-02-16T00:17:08.287Z,10.33
2019-02-16T00:19:36.683Z,9.83
2019-02-16T00:22:05.058Z,10.03
2019-02-16T00:24:33.481Z,10.67
2019-02-16T00:27:01.843Z,11.10
2019-02-16T00:29:30.253Z,11.50
2019-02-16T00:31:58.667Z,10.93
2019-02-16T00:34:27.042Z,11.60
2019-02-16T00:36:55.440Z,11.47
2019-02-16T00:39:23.833Z,12.13
2019-02-16T00:41:52.238Z,11.30
2019-02-16T00:44:20.654Z,11.10
2019-02-16T00:46:49.051Z,11.27
2019-02-16T00:49:17.464Z,12.70
2019-02-16T00:51:45.830Z,11.63
2019-02-16T00:54:14.235Z,11.73
2019-02-16T00:56:42.607Z,12.37
2019-02-16T00:59:11.007Z,11.63
2019-02-16T01:01:39.408Z,11.93
2019-02-16T01:04:07.815Z,11.53
2019-02-16T01:06:36.225Z,12.00
2019-02-16T01:09:05.523Z,11.90
2019-02-16T01:11:33.923Z,13.47
2019-02-16T01:14:02.305Z,12.57
2019-02-16T01:16:30.738Z,12.13
2019-02-16T01:18:59.121Z,12.60
2019-02-16T01:21:27.518Z,12.70
2019-02-16T01:23:55.894Z,12.80
2019-02-16T01:26:24.300Z,12.93
2019-02-16T01:28:52.684Z,13.07
2019-02-16T01:31:21.118Z,13.00
2019-02-16T01:33:49.591Z,12.77
2019-02-16T01:36:18.027Z,13.03
2019-02-16T01:38:46.484Z,13.13
2019-02-16T01:41:14.940Z,13.10
2019-02-16T01:43:43.416Z,12.53
2019-02-16T01:46:11.783Z,13.97
2019-02-16T01:48:40.196Z,12.70
2019-02-16T01:51:08.611Z,13.37
2019-02-16T01:53:37.082Z,13.87
2019-02-16T01:56:05.519Z,12.77
2019-02-16T01:58:33.976Z,13.73
2019-02-16T02:01:02.413Z,13.27
2019-02-16T02:03:30.833Z,13.47
2019-02-16T02:05:59.306Z,12.97
2019-02-16T02:08:27.751Z,14.03
2019-02-16T02:10:56.201Z,14.80
2019-02-16T02:13:24.626Z,14.10
2019-02-16T02:15:53.057Z,14.17
2019-02-16T02:18:21.509Z,13.37
2019-02-16T02:20:49.943Z,14.83
2019-02-16T02:23:18.396Z,14.37
2019-02-16T02:25:46.833Z,14.00
2019-02-16T02:28:15.281Z,14.60
2019-02-16T02:30:43.706Z,14.10
2019-02-16T02:33:12.167Z,14.40
2019-02-16T02:35:40.625Z,14.63
2019-02-16T02:38:09.046Z,14.40
2019-02-16T02:40:37.509Z,13.90
2019-02-16T02:43:05.976Z,14.83
2019-02-16T02:45:34.424Z,15.73
2019-02-16T02:48:02.884Z,14.93
2019-02-16T02:50:31.347Z,14.33
2019-02-16T02:52:59.808Z,15.40
2019-02-16T02:55:28.232Z,13.87
2019-02-16T02:57:56.710Z,15.37
2019-02-16T03:00:25.198Z,14.87
2019-02-16T03:02:53.690Z,15.60
2019-02-16T03:05:22.161Z,14.97
2019-02-16T03:07:50.614Z,15.03
2019-02-16T03:10:19.054Z,15.87
2019-02-16T03:12:47.505Z,15.07
2019-02-16T03:15:15.958Z,15.80
2019-02-16T03:17:44.413Z,16.00
2019-02-16T03:20:12.837Z,15.07
2019-02-16T03:23:12.496Z,14.83
2019-02-16T03:25:43.304Z,15.07
2019-02-16T03:28:33.214Z,16.27
2019-02-16T03:31:11.017Z,15.20
2019-02-16T03:33:45.309Z,14.97
2019-02-16T03:36:45.667Z,15.43
2019-02-16T03:39:15.600Z,15.03
2019-02-16T03:41:44.054Z,15.00
2019-02-16T03:44:12.490Z,15.40
2019-02-16T03:46:40.939Z,15.83
2019-02-16T03:49:09.405Z,15.40
2019-02-16T03:51:37.847Z,14.93
2019-02-16T03:54:06.302Z,15.70
2019-02-16T03:56:34.739Z,16.57
2019-02-16T03:59:03.192Z,16.30
2019-02-16T04:01:31.650Z,16.03
2019-02-16T04:04:00.113Z,16.37
2019-02-16T04:06:28.561Z,16.20
2019-02-16T04:08:56.986Z,16.97
2019-02-16T04:11:25.442Z,15.27
2019-02-16T04:13:53.937Z,16.27
2019-02-16T04:16:22.395Z,15.17
2019-02-16T04:18:50.799Z,16.50
2019-02-16T04:21:19.230Z,16.17
2019-02-16T04:23:47.676Z,16.17
2019-02-16T04:26:16.144Z,15.67
2019-02-16T04:28:44.545Z,15.30
2019-02-16T04:31:12.928Z,16.43
2019-02-16T04:33:41.337Z,14.57
2019-02-16T04:36:09.717Z,15.00
2019-02-16T04:38:38.091Z,16.00
2019-02-16T04:41:06.499Z,14.83
2019-02-16T04:43:34.880Z,16.43
2019-02-16T04:46:03.285Z,15.47
2019-02-16T04:48:31.671Z,16.10
2019-02-16T04:51:00.066Z,16.57
2019-02-16T04:53:28.449Z,16.37
2019-02-16T04:55:56.854Z,17.20
2019-02-16T04:58:25.235Z,16.30
2019-02-16T05:00:53.630Z,16.43
2019-02-16T05:03:22.040Z,17.10
2019-02-16T05:05:50.421Z,16.67
2019-02-16T05:08:18.826Z,16.67
2019-02-16T05:10:47.201Z,17.37
2019-02-16T05:13:15.614Z,16.60
2019-02-16T05:15:43.990Z,17.30
2019-02-16T05:18:12.392Z,17.43
2019-02-16T05:20:40.780Z,16.50
2019-02-16T05:23:09.198Z,17.93
2019-02-16T05:25:37.590Z,16.00
2019-02-16T05:28:05.973Z,16.50
2019-02-16T05:30:34.375Z,16.90
2019-02-16T05:33:05.710Z,16.83
2019-02-16T05:35:34.102Z,16.60
2019-02-16T05:38:02.484Z,17.47
2019-02-16T05:40:30.888Z,16.63
2019-02-16T05:42:59.283Z,15.97
2019-02-16T05:45:27.660Z,17.37
2019-02-16T05:47:56.062Z,17.43
2019-02-16T05:50:24.471Z,15.83
2019-02-16T05:52:54.650Z,16.87
2019-02-16T05:55:22.947Z,17.23
2019-02-16T05:57:51.329Z,15.83
2019-02-16T06:00:21.376Z,16.03
2019-02-16T06:02:49.771Z,15.67
2019-02-16T06:05:18.152Z,16.43
2019-02-16T06:07:46.502Z,16.10
2019-02-16T06:10:14.909Z,16.53
2019-02-16T06:12:43.318Z,16.87
2019-02-16T06:15:11.693Z,15.97
2019-02-16T06:17:40.102Z,16.30
2019-02-16T06:20:09.136Z,15.83
2019-02-16T06:22:37.545Z,16.13
2019-02-16T06:25:06.303Z,16.13
2019-02-16T06:27:34.672Z,18.27
2019-02-16T06:30:03.167Z,16.53
2019-02-16T06:32:31.555Z,16.53
2019-02-16T06:35:01.617Z,16.00
2019-02-16T06:37:30.004Z,16.73
2019-02-16T06:39:58.436Z,17.60
2019-02-16T06:42:26.827Z,17.20
2019-02-16T06:44:55.217Z,16.37
2019-02-16T06:47:23.714Z,17.13
2019-02-16T06:49:52.088Z,17.00
2019-02-16T06:52:20.504Z,17.23
2019-02-16T06:54:48.907Z,17.77
2019-02-16T06:57:21.899Z,16.60
2019-02-16T06:59:50.311Z,18.40
2019-02-16T07:02:19.340Z,18.03
2019-02-16T07:04:47.676Z,17.63
2019-02-16T07:07:16.156Z,17.20
2019-02-16T07:09:44.535Z,17.40
2019-02-16T07:12:12.932Z,18.37
2019-02-16T07:14:41.307Z,17.87
2019-02-16T07:17:20.603Z,16.33
2019-02-16T07:19:50.859Z,18.40
2019-02-16T07:22:19.274Z,17.87
2019-02-16T07:24:47.700Z,19.10
2019-02-16T07:27:16.077Z,17.30
2019-02-16T07:29:44.488Z,16.63
2019-02-16T07:32:12.895Z,17.23
2019-02-16T07:34:41.274Z,17.60
2019-02-16T07:37:09.665Z,17.30
2019-02-16T07:39:38.094Z,18.00
2019-02-16T07:42:06.483Z,17.00
2019-02-16T07:44:42.202Z,18.53
2019-02-16T07:47:12.232Z,18.10
2019-02-16T07:49:42.277Z,18.20
2019-02-16T07:52:15.264Z,18.00
2019-02-16T07:54:45.275Z,17.53
2019-02-16T07:57:15.320Z,18.57
2019-02-16T07:59:48.023Z,17.50
2019-02-16T08:02:18.077Z,17.40
2019-02-16T08:05:03.327Z,17.33
2019-02-16T08:07:33.336Z,17.40
2019-02-16T08:10:12.246Z,17.27
2019-02-16T08:12:42.267Z,17.77
2019-02-16T08:15:12.312Z,18.10
2019-02-16T08:17:42.337Z,18.63
2019-02-16T08:20:12.410Z,18.23
2019-02-16T08:22:42.422Z,17.77
2019-02-16T08:25:21.368Z,18.37
2019-02-16T08:27:51.358Z,17.93
2019-02-16T08:30:21.411Z,18.97
2019-02-16T08:32:54.453Z,17.83
2019-02-16T08:35:24.495Z,18.20
2019-02-16T08:37:54.583Z,18.60
2019-02-16T08:40:27.253Z,18.23
2019-02-16T08:43:00.107Z,17.67
2019-02-16T08:45:46.296Z,18.27
2019-02-16T08:48:16.329Z,17.70
2019-02-16T08:50:49.469Z,19.17
2019-02-16T08:53:19.452Z,17.90
2019-02-16T08:55:49.470Z,18.57
2019-02-16T08:58:25.427Z,19.33
2019-02-16T09:01:10.228Z,18.13
2019-02-16T09:03:46.044Z,17.77
2019-02-16T09:06:22.075Z,17.70
2019-02-16T09:08:52.127Z,17.23
2019-02-16T09:11:38.551Z,17.77
2019-02-16T09:14:08.605Z,19.00
2019-02-16T09:16:55.079Z,17.87
2019-02-16T09:19:41.514Z,19.27
2019-02-16T09:22:13.412Z,18.60
2019-02-16T09:24:43.246Z,19.67
2019-02-16T09:27:19.230Z,18.23
2019-02-16T09:29:49.245Z,18.20
2019-02-16T09:32:19.278Z,20.10
2019-02-16T09:34:49.327Z,19.13
2019-02-16T09:37:22.090Z,19.20
2019-02-16T09:39:57.818Z,19.23
2019-02-16T09:42:45.944Z,19.47
2019-02-16T09:45:21.930Z,19.23
2019-02-16T09:47:51.955Z,19.67
2019-02-16T09:50:24.813Z,19.50
2019-02-16T09:52:57.747Z,19.33
2019-02-16T09:55:33.669Z,19.43
2019-02-16T09:58:18.739Z,19.70
2019-02-16T10:01:05.220Z,19.07
2019-02-16T10:03:43.871Z,19.40
2019-02-16T10:06:19.814Z,18.93
2019-02-16T10:08:52.474Z,20.73
2019-02-16T10:11:22.466Z,19.47
2019-02-16T10:14:08.735Z,19.77
2019-02-16T10:16:38.695Z,19.70
2019-02-16T10:19:08.745Z,20.93
2019-02-16T10:21:47.706Z,19.10
2019-02-16T10:24:23.752Z,20.17
2019-02-16T10:26:56.728Z,19.43
2019-02-16T10:29:43.152Z,20.03
2019-02-16T10:32:13.189Z,19.50
2019-02-16T10:34:45.580Z,18.97
2019-02-16T10:37:34.085Z,20.27
2019-02-16T10:40:16.123Z,19.80
2019-02-16T10:42:54.682Z,20.20
2019-02-16T10:45:40.979Z,19.20
2019-02-16T10:48:10.990Z,19.40
2019-02-16T10:50:41.035Z,18.57
2019-02-16T10:53:29.434Z,19.03
2019-02-16T10:56:08.893Z,20.67
2019-02-16T10:58:55.250Z,18.90
2019-02-16T11:01:31.477Z,20.60
2019-02-16T11:04:07.403Z,21.20
2019-02-16T11:06:55.550Z,18.80
2019-02-16T11:09:31.526Z,20.20
2019-02-16T11:12:16.799Z,19.93
2019-02-16T11:15:03.434Z,20.40
2019-02-16T11:17:36.142Z,20.80
2019-02-16T11:20:08.353Z,20.53
2019-02-16T11:22:54.622Z,20.33
2019-02-16T11:25:41.120Z,21.23
2019-02-16T11:28:26.303Z,20.93
2019-02-16T11:31:05.114Z,20.27
2019-02-16T11:33:44.121Z,20.73
2019-02-16T11:36:14.211Z,19.97
2019-02-16T11:38:46.740Z,21.83
2019-02-16T11:41:18.960Z,20.80
2019-02-16T11:43:48.486Z,20.37
2019-02-16T11:46:30.308Z,20.73
2019-02-16T11:49:00.319Z,21.53
2019-02-16T11:51:38.862Z,21.37
2019-02-16T11:54:14.712Z,20.97
2019-02-16T11:56:44.732Z,20.30
2019-02-16T11:59:14.782Z,20.43
2019-02-16T12:01:44.799Z,20.17
2019-02-16T12:04:29.800Z,20.83
2019-02-16T12:07:18.047Z,20.57
2019-02-16T12:10:05.996Z,21.63
2019-02-16T12:12:51.105Z,20.20
2019-02-16T12:15:39.159Z,21.13
2019-02-16T12:18:17.918Z,21.23
2019-02-16T12:21:04.209Z,21.30
2019-02-16T12:23:34.223Z,20.73
2019-02-16T12:26:04.288Z,21.97
2019-02-16T12:28:52.266Z,21.00
2019-02-16T12:31:22.250Z,20.77
2019-02-16T12:36:45.723Z,20.37
2019-02-16T12:39:33.829Z,20.70
2019-02-16T12:42:03.866Z,21.13
2019-02-16T12:44:34.179Z,20.27
2019-02-16T12:47:12.718Z,19.87
2019-02-16T12:49:54.942Z,20.63
2019-02-16T12:52:27.969Z,21.27
2019-02-16T12:55:14.380Z,20.53
2019-02-16T12:57:44.174Z,20.93
2019-02-16T13:00:17.229Z,20.53
2019-02-16T13:02:59.577Z,21.00
2019-02-16T13:05:32.613Z,22.27
2019-02-16T13:08:05.706Z,21.33
2019-02-16T13:10:51.909Z,20.80
2019-02-16T13:13:30.826Z,21.13
2019-02-16T13:16:15.901Z,22.50
2019-02-16T13:19:00.925Z,21.10
2019-02-16T13:21:30.935Z,21.53
2019-02-16T13:24:00.978Z,21.20
2019-02-16T13:26:47.428Z,21.27
2019-02-16T13:29:29.411Z,20.47
2019-02-16T13:32:11.607Z,20.03
2019-02-16T13:34:47.178Z,21.13
2019-02-16T13:37:20.154Z,21.37
2019-02-16T13:39:50.188Z,20.50
2019-02-16T13:42:23.032Z,20.47
2019-02-16T13:44:55.803Z,19.93
2019-02-16T13:47:25.817Z,20.77
2019-02-16T13:49:58.585Z,20.20
2019-02-16T13:52:28.584Z,20.63
2019-02-16T13:55:14.857Z,19.57
2019-02-16T13:57:44.883Z,20.03
2019-02-16T14:00:20.727Z,19.93
2019-02-16T14:02:59.926Z,20.57
2019-02-16T14:05:29.982Z,20.33
2019-02-16T14:08:00.037Z,20.57
2019-02-16T14:10:33.073Z,20.23
2019-02-16T14:13:19.308Z,20.17
2019-02-16T14:15:54.798Z,19.83
2019-02-16T14:18:23.264Z,20.40
2019-02-16T14:20:51.631Z,20.07
2019-02-16T14:23:20.022Z,20.97
2019-02-16T14:25:48.427Z,21.53
2019-02-16T14:28:16.828Z,21.53
2019-02-16T14:30:45.254Z,21.57
2019-02-16T14:33:13.658Z,20.90
2019-02-16T14:35:42.050Z,21.40
2019-02-16T14:38:12.073Z,21.20
2019-02-16T14:40:40.492Z,22.00
2019-02-16T14:43:08.899Z,21.53
2019-02-16T14:45:38.937Z,22.23
2019-02-16T14:48:07.357Z,21.37
2019-02-16T14:50:35.730Z,21.47
2019-02-16T14:53:04.150Z,22.80
2019-02-16T14:55:32.550Z,22.70
2019-02-16T14:58:00.966Z,22.43
2019-02-16T15:00:29.415Z,22.20
2019-02-16T15:02:57.824Z,22.47
2019-02-16T15:05:26.214Z,21.97
2019-02-16T15:07:54.649Z,22.37
2019-02-16T15:10:23.058Z,22.90
2019-02-16T15:12:51.467Z,22.57
2019-02-16T15:15:19.868Z,22.20
2019-02-16T15:17:48.255Z,22.73
2019-02-16T15:20:17.199Z,23.93
2019-02-16T15:22:45.593Z,22.93
2019-02-16T15:25:13.980Z,22.03
2019-02-16T15:27:42.386Z,23.13
2019-02-16T15:30:17.126Z,23.03
2019-02-16T15:32:45.537Z,23.83
2019-02-16T15:35:13.927Z,23.07
2019-02-16T15:37:42.330Z,23.77
2019-02-16T15:40:11.131Z,23.90
2019-02-16T15:42:39.525Z,22.67
2019-02-16T15:45:12.823Z,22.70
2019-02-16T15:47:41.222Z,22.07
2019-02-16T15:50:12.335Z,22.93
2019-02-16T15:52:40.698Z,23.03
2019-02-16T15:55:10.754Z,24.37
2019-02-16T15:57:39.159Z,24.67
2019-02-16T16:00:12.184Z,25.47
2019-02-16T16:02:40.525Z,25.70
2019-02-16T16:05:08.944Z,26.33
2019-02-16T16:07:38.070Z,26.60
2019-02-16T16:10:25.315Z,27.03
2019-02-16T16:12:58.244Z,25.77
2019-02-16T16:15:46.011Z,27.77
2019-02-16T16:18:16.006Z,26.03
2019-02-16T16:20:46.052Z,26.73
2019-02-16T16:23:32.287Z,27.20
2019-02-16T16:26:19.347Z,27.33
2019-02-16T16:28:49.070Z,26.90
2019-02-16T16:31:21.791Z,26.80
2019-02-16T16:33:54.499Z,28.10
2019-02-16T16:36:33.247Z,27.03
2019-02-16T16:39:15.221Z,26.90
2019-02-16T16:41:45.273Z,27.93
2019-02-16T16:44:15.300Z,28.87
2019-02-16T16:46:54.540Z,26.73
2019-02-16T16:49:24.597Z,27.97
2019-02-16T16:51:57.230Z,27.03
2019-02-16T16:54:39.178Z,27.73
2019-02-16T16:57:14.903Z,26.23
2019-02-16T16:59:44.956Z,26.87
2019-02-16T17:02:31.501Z,26.13
2019-02-16T17:05:04.045Z,27.20
2019-02-16T17:07:34.166Z,28.53
2019-02-16T17:10:10.154Z,28.23
2019-02-16T17:12:56.355Z,27.63
2019-02-16T17:15:38.344Z,28.47
2019-02-16T17:18:23.542Z,29.10
2019-02-16T17:21:08.509Z,28.97
2019-02-16T17:23:50.437Z,28.37
2019-02-16T17:26:38.091Z,28.23
2019-02-16T17:29:16.972Z,28.17
2019-02-16T17:31:53.232Z,28.57
2019-02-16T17:34:39.757Z,26.77
2019-02-16T17:37:26.099Z,28.30
2019-02-16T17:40:04.879Z,28.37
2019-02-16T17:42:34.893Z,28.73
2019-02-16T17:45:22.062Z,26.90
2019-02-16T17:48:12.336Z,27.03
2019-02-16T17:50:42.375Z,27.47
2019-02-16T17:53:12.403Z,27.13
2019-02-16T17:55:45.407Z,27.03
2019-02-16T17:58:18.347Z,27.23
2019-02-16T18:00:51.096Z,27.77
2019-02-16T18:03:29.783Z,27.97
2019-02-16T18:06:08.857Z,29.57
2019-02-16T18:08:57.043Z,29.00
2019-02-16T18:11:43.443Z,29.57
2019-02-16T18:14:13.504Z,29.47
2019-02-16T18:17:01.854Z,28.60
2019-02-16T18:19:31.921Z,28.67
2019-02-16T18:22:04.961Z,29.03
2019-02-16T18:24:44.146Z,28.47
2019-02-16T18:27:16.901Z,27.40
2019-02-16T18:29:46.941Z,28.67
2019-02-16T18:32:31.915Z,28.80
2019-02-16T18:35:23.930Z,28.83
2019-02-16T18:38:01.947Z,27.83
2019-02-16T18:40:31.958Z,28.80
2019-02-16T18:43:18.496Z,29.40
2019-02-16T18:46:04.986Z,28.37
2019-02-16T18:48:50.233Z,29.40
2019-02-16T18:51:23.199Z,29.03
2019-02-16T18:53:56.225Z,28.63
2019-02-16T18:56:32.180Z,29.27
2019-02-16T18:59:08.515Z,28.70
2019-02-16T19:01:38.562Z,30.37
2019-02-16T19:04:11.582Z,31.50
2019-02-16T19:06:47.304Z,29.60
2019-02-16T19:09:17.357Z,31.37
2019-02-16T19:11:47.370Z,32.83
2019-02-16T19:14:23.334Z,31.70
2019-02-16T19:16:53.397Z,31.87
2019-02-16T19:19:39.440Z,30.27
2019-02-16T19:22:27.419Z,30.10
2019-02-16T19:25:03.463Z,29.53
2019-02-16T19:27:45.553Z,29.40
2019-02-16T19:30:15.594Z,30.70
2019-02-16T19:32:54.452Z,29.10
2019-02-16T19:35:24.501Z,28.23
2019-02-16T19:37:54.514Z,30.90
2019-02-16T19:40:36.492Z,29.90
2019-02-16T19:43:06.510Z,29.90
2019-02-16T19:45:42.537Z,31.00
2019-02-16T19:48:12.589Z,31.37
2019-02-16T19:50:51.600Z,30.43
2019-02-16T19:53:27.470Z,29.57
2019-02-16T19:56:06.680Z,30.23
2019-02-16T19:58:39.667Z,30.27
2019-02-16T20:01:25.925Z,30.13
2019-02-16T20:03:55.939Z,29.67
2019-02-16T20:06:28.630Z,30.47
2019-02-16T20:08:58.645Z,31.70
2019-02-16T20:11:31.656Z,29.43
2019-02-16T20:14:07.867Z,29.90
2019-02-16T20:16:43.844Z,30.03
2019-02-16T20:19:16.398Z,30.73
2019-02-16T20:21:52.347Z,29.73
2019-02-16T20:24:25.059Z,29.97
2019-02-16T20:26:58.044Z,30.93
2019-02-16T20:29:28.080Z,29.40
2019-02-16T20:31:58.107Z,30.20
2019-02-16T20:34:34.149Z,30.27
2019-02-16T20:37:20.312Z,30.97
2019-02-16T20:40:06.801Z,30.70
2019-02-16T20:42:45.935Z,30.83
2019-02-16T20:45:18.984Z,29.40
2019-02-16T20:47:51.883Z,29.20
2019-02-16T20:50:33.876Z,30.00
2019-02-16T20:53:03.856Z,29.37
2019-02-16T20:55:33.885Z,29.17
2019-02-16T20:58:03.934Z,30.03
2019-02-16T21:00:33.978Z,30.17
2019-02-16T21:03:06.745Z,29.77
2019-02-16T21:05:45.587Z,30.50
2019-02-16T21:08:24.683Z,29.73
2019-02-16T21:10:57.453Z,30.33
2019-02-16T21:13:27.463Z,32.07
2019-02-16T21:16:03.351Z,29.90
2019-02-16T21:18:36.104Z,30.53
2019-02-16T21:21:22.713Z,30.03
2019-02-16T21:23:52.745Z,29.53
2019-02-16T21:26:22.766Z,29.63
2019-02-16T21:29:09.079Z,29.33
2019-02-16T21:31:48.358Z,27.93
2019-02-16T21:34:24.213Z,31.13
2019-02-16T21:36:57.245Z,30.50
2019-02-16T21:39:27.277Z,27.90
2019-02-16T21:42:03.061Z,28.60
2019-02-16T21:44:51.407Z,31.33
2019-02-16T21:47:30.066Z,30.10
2019-02-16T21:50:16.363Z,30.87
2019-02-16T21:52:46.380Z,32.00
2019-02-16T21:55:19.105Z,30.70
2019-02-16T21:58:07.595Z,32.03
2019-02-16T22:00:29.906Z,31.43
2019-02-16T22:03:12.155Z,31.77
2019-02-16T22:05:44.539Z,30.20
2019-02-16T22:08:17.456Z,29.93
2019-02-16T22:10:53.194Z,30.67
2019-02-16T22:13:21.576Z,31.33
2019-02-16T22:15:49.988Z,31.43
2019-02-16T22:18:18.359Z,31.10
2019-02-16T22:20:46.759Z,32.87
2019-02-16T22:23:15.160Z,30.50
2019-02-16T22:25:43.538Z,32.40
2019-02-16T22:28:18.813Z,31.07
2019-02-16T22:30:41.964Z,30.70
2019-02-16T22:33:10.376Z,31.33
2019-02-16T22:35:38.775Z,30.17
2019-02-16T22:38:07.167Z,31.20
2019-02-16T22:40:35.575Z,31.80
2019-02-16T22:43:03.948Z,32.30
2019-02-16T22:45:32.356Z,32.73
2019-02-16T22:48:00.756Z,32.73
2019-02-16T22:50:29.181Z,32.63
2019-02-16T22:52:57.554Z,32.20
2019-02-16T22:55:25.931Z,32.30
2019-02-16T22:57:54.344Z,32.80
2019-02-16T23:00:40.684Z,34.87
2019-02-16T23:03:09.070Z,35.30
2019-02-16T23:05:37.448Z,32.73
2019-02-16T23:08:05.838Z,33.47
2019-02-16T23:10:34.237Z,32.03
2019-02-16T23:13:02.625Z,34.53
2019-02-16T23:15:31.031Z,32.60
2019-02-16T23:17:59.401Z,33.10
2019-02-16T23:20:27.803Z,33.73
2019-02-16T23:22:56.217Z,31.77
2019-02-16T23:25:24.583Z,32.13
2019-02-16T23:27:53.869Z,35.67
2019-02-16T23:30:22.436Z,33.10
2019-02-16T23:32:50.830Z,34.23
2019-02-16T23:35:19.230Z,33.07
2019-02-16T23:37:47.641Z,34.40
2019-02-16T23:40:16.043Z,31.40
2019-02-16T23:42:44.461Z,31.50
2019-02-16T23:45:12.855Z,32.63
2019-02-16T23:47:41.232Z,32.33
2019-02-16T23:50:10.771Z,30.87
2019-02-16T23:52:39.172Z,31.03
2019-02-16T23:55:11.239Z,32.10
2019-02-16T23:57:39.590Z,31.87
